Terminal Aerodrome Forecast
Issued by NWS

Home | Current Version | Previous Version | Text Only | Print | Product List | Glossary On
Versions: 1 2 3 4 5 6 7 8 9 10 11 12 13
000
FTUS46 KPDT 301100
TAFALW
TAF
KALW 301120Z 3012/0112 21013G19KT P6SM BKN060
     FM301600 22014G22KT P6SM BKN050
     FM302100 24016G22KT P6SM SCT050 BKN070
     FM010300 19010KT P6SM SCT070=

USA.gov is the U.S. government's official web portal to all federal, state and local government web resources and services.